Time;durP1;ratioP1;P1;durP2;ratioP2;P2;SDS_P1;SDS_P2;PMS_P1;PMS_P2;Temp;Humidity;BMP_temperature;BMP_pressure;BME280_temperature;BME280_humidity;BME280_pressure;Samples;Min_cycle;Max_cycle;Signal;HPM_P1;HPM_P2
2021/09/18 00:01:45;;;;;;;3.70;1.80;;;20.70;61.40;;;;;;20507833;28;20469;-54
2021/09/18 00:11:46;;;;;;;4.00;1.25;;;20.70;61.40;;;;;;20510052;28;20087;-52
2021/09/18 00:21:47;;;;;;;5.27;1.73;;;20.70;61.40;;;;;;20508080;28;20147;-53
2021/09/18 00:31:47;;;;;;;3.30;1.17;;;20.70;61.50;;;;;;20508261;28;20039;-55
2021/09/18 00:41:48;;;;;;;3.17;1.30;;;20.60;61.50;;;;;;20482363;28;20027;-56
2021/09/18 00:51:49;;;;;;;10.40;2.20;;;20.70;61.40;;;;;;20496726;28;20042;-55
2021/09/18 01:01:49;;;;;;;15.45;2.75;;;20.70;61.60;;;;;;20504192;28;20043;-55
2021/09/18 01:11:50;;;;;;;20.52;2.25;;;20.60;61.80;;;;;;20502967;28;20042;-55
2021/09/18 01:21:52;;;;;;;5.40;2.03;;;20.60;61.70;;;;;;20495316;28;20023;-57
2021/09/18 01:31:52;;;;;;;9.07;1.83;;;20.60;61.80;;;;;;20500999;28;20439;-57
2021/09/18 01:41:53;;;;;;;10.87;2.37;;;20.60;61.80;;;;;;20500555;28;20027;-57
2021/09/18 01:51:58;;;;;;;7.30;1.15;;;20.50;61.80;;;;;;20499981;28;20641;-54
2021/09/18 02:01:58;;;;;;;7.28;1.55;;;20.50;61.90;;;;;;20498651;28;20043;-58
2021/09/18 02:11:59;;;;;;;7.38;1.42;;;20.50;61.90;;;;;;20498015;28;20086;-55
2021/09/18 02:21:59;;;;;;;6.90;1.35;;;20.50;61.90;;;;;;20496787;28;20027;-57
2021/09/18 02:32:00;;;;;;;9.95;2.03;;;20.50;61.80;;;;;;20496843;28;20119;-57
2021/09/18 02:42:01;;;;;;;9.87;1.63;;;20.50;61.90;;;;;;20507014;28;20118;-58
2021/09/18 02:52:01;;;;;;;8.13;1.10;;;20.40;61.90;;;;;;20497650;28;20028;-57
2021/09/18 03:02:04;;;;;;;7.72;1.10;;;20.50;62.00;;;;;;20495933;28;20480;-55
2021/09/18 03:12:05;;;;;;;3.65;1.20;;;20.50;61.90;;;;;;20494997;28;20028;-57
2021/09/18 03:22:05;;;;;;;5.93;1.70;;;20.40;61.80;;;;;;20495079;28;20045;-56
2021/09/18 03:32:06;;;;;;;3.53;0.95;;;20.40;61.90;;;;;;20494269;28;20486;-57
2021/09/18 03:42:07;;;;;;;5.68;1.42;;;20.40;62.00;;;;;;20499322;28;20035;-57
2021/09/18 03:52:07;;;;;;;5.15;1.40;;;20.40;61.90;;;;;;20508765;28;20042;-54
2021/09/18 04:02:08;;;;;;;3.10;0.80;;;20.40;62.40;;;;;;20513215;28;20031;-57
2021/09/18 04:12:08;;;;;;;2.60;0.77;;;20.40;62.00;;;;;;20507079;28;20401;-57
2021/09/18 04:22:09;;;;;;;3.63;0.68;;;20.30;62.00;;;;;;20498432;28;20049;-57
2021/09/18 04:32:09;;;;;;;2.08;0.60;;;20.40;62.20;;;;;;20488180;28;20604;-57
2021/09/18 04:42:10;;;;;;;5.15;1.20;;;20.30;62.00;;;;;;20500772;29;20410;-55
2021/09/18 04:52:11;;;;;;;1.67;0.73;;;20.40;62.00;;;;;;20492113;28;20023;-52
2021/09/18 05:02:11;;;;;;;2.17;0.47;;;20.30;62.10;;;;;;20503179;28;20037;-57
2021/09/18 05:12:12;;;;;;;3.17;0.63;;;20.30;62.00;;;;;;20502064;28;21061;-57
2021/09/18 05:22:12;;;;;;;2.53;0.65;;;20.30;61.90;;;;;;20495415;28;20027;-54
2021/09/18 05:32:13;;;;;;;5.00;0.70;;;20.30;61.90;;;;;;20502300;28;20118;-55
2021/09/18 05:42:14;;;;;;;3.17;0.90;;;20.30;62.00;;;;;;20500469;28;20473;-56
2021/09/18 05:52:15;;;;;;;6.43;1.02;;;20.30;62.00;;;;;;20498677;28;20027;-58
2021/09/18 06:02:15;;;;;;;3.90;0.98;;;20.30;62.00;;;;;;20498890;28;20379;-55
2021/09/18 06:12:16;;;;;;;2.22;0.70;;;20.30;62.10;;;;;;20492644;28;20039;-54
2021/09/18 06:22:16;;;;;;;5.60;1.20;;;20.30;62.00;;;;;;20450899;28;20036;-50
2021/09/18 06:32:17;;;;;;;11.18;2.00;;;20.30;61.60;;;;;;20479740;28;20109;-56
2021/09/18 06:42:17;;;;;;;4.75;1.33;;;20.30;61.80;;;;;;20467561;28;20532;-56
2021/09/18 06:52:18;;;;;;;10.73;1.58;;;20.30;61.90;;;;;;20482880;28;20039;-54
2021/09/18 07:02:19;;;;;;;22.85;2.28;;;20.50;60.50;;;;;;20497506;28;20031;-57
2021/09/18 07:12:19;;;;;;;19.53;3.87;;;20.60;59.70;;;;;;20499348;28;20126;-56
2021/09/18 07:22:20;;;;;;;51.25;5.15;;;20.70;58.70;;;;;;20509617;28;20490;-56
2021/09/18 07:32:20;;;;;;;32.45;6.15;;;20.80;58.20;;;;;;20511043;28;20054;-56
2021/09/18 07:42:21;;;;;;;31.48;6.85;;;20.80;58.40;;;;;;20510501;28;20420;-57
2021/09/18 07:52:22;;;;;;;34.03;6.15;;;20.80;57.70;;;;;;20508709;28;20115;-59
2021/09/18 08:02:22;;;;;;;26.00;5.57;;;20.70;59.80;;;;;;20509384;28;20039;-55
2021/09/18 08:12:24;;;;;;;26.05;5.63;;;20.60;59.80;;;;;;20507140;28;20518;-58
2021/09/18 08:22:24;;;;;;;17.33;4.70;;;20.60;60.60;;;;;;20505929;28;20043;-55
2021/09/18 08:32:25;;;;;;;19.17;4.90;;;20.50;60.70;;;;;;20485676;28;20174;-57
2021/09/18 08:42:26;;;;;;;19.75;3.75;;;20.40;60.90;;;;;;20494969;28;20473;-57
2021/09/18 08:52:27;;;;;;;18.00;2.90;;;20.40;61.10;;;;;;20504621;28;20646;-53
2021/09/18 09:02:30;;;;;;;11.93;2.75;;;20.40;61.20;;;;;;20481832;28;20042;-54
2021/09/18 09:12:33;;;;;;;14.82;3.63;;;20.40;61.30;;;;;;20500392;28;20035;-54
2021/09/18 09:22:42;;;;;;;6.63;3.00;;;20.40;61.70;;;;;;20500842;28;20130;-58
2021/09/18 09:32:43;;;;;;;9.23;2.80;;;20.40;61.80;;;;;;20501609;28;20027;-56
2021/09/18 09:42:46;;;;;;;5.35;2.60;;;20.40;62.00;;;;;;20499063;28;20399;-55
2021/09/18 09:52:50;;;;;;;10.07;2.75;;;20.40;61.80;;;;;;20498804;28;20035;-56
2021/09/18 10:02:51;;;;;;;6.53;2.70;;;20.40;62.10;;;;;;20499485;28;20031;-56
2021/09/18 10:12:52;;;;;;;8.55;2.72;;;20.40;62.20;;;;;;20503931;28;20521;-57
2021/09/18 10:23:15;;;;;;;6.18;2.50;;;20.40;62.30;;;;;;20496712;28;20039;-55
2021/09/18 10:33:45;;;;;;;5.50;2.40;;;20.40;62.40;;;;;;20493328;28;20039;-55
2021/09/18 10:44:00;;;;;;;6.25;2.13;;;20.40;62.60;;;;;;20495712;28;20056;-56
2021/09/18 10:54:05;;;;;;;3.80;2.05;;;20.40;63.10;;;;;;20494668;28;20094;-54
2021/09/18 11:04:38;;;;;;;5.82;1.77;;;20.40;62.80;;;;;;20473845;28;20071;-51
2021/09/18 11:14:38;;;;;;;3.17;1.88;;;20.40;62.50;;;;;;20493029;28;20074;-57
2021/09/18 11:24:39;;;;;;;4.47;1.60;;;20.50;62.50;;;;;;20495216;28;20414;-57
2021/09/18 11:34:42;;;;;;;3.78;2.00;;;20.50;62.40;;;;;;20493955;28;20549;-49
2021/09/18 11:44:46;;;;;;;4.65;1.45;;;20.50;62.40;;;;;;20489815;28;20150;-57
2021/09/18 11:54:46;;;;;;;4.38;1.60;;;20.40;62.40;;;;;;20476975;28;20042;-53
2021/09/18 12:04:50;;;;;;;4.43;1.58;;;20.40;62.30;;;;;;20478044;28;20641;-56
2021/09/18 12:14:53;;;;;;;7.10;2.33;;;20.50;62.40;;;;;;20507446;28;20027;-56
2021/09/18 12:24:54;;;;;;;6.32;2.22;;;20.40;62.40;;;;;;20504492;28;20026;-57
2021/09/18 12:34:56;;;;;;;3.03;1.38;;;20.40;62.20;;;;;;20511152;28;20050;-55
2021/09/18 12:44:57;;;;;;;3.58;1.58;;;20.40;62.20;;;;;;20507239;28;20517;-57
2021/09/18 12:55:02;;;;;;;3.30;1.23;;;20.50;62.10;;;;;;20505444;28;20118;-57
2021/09/18 13:05:03;;;;;;;6.13;2.53;;;20.40;62.30;;;;;;20501218;28;20090;-56
2021/09/18 13:15:10;;;;;;;4.45;2.13;;;20.40;62.10;;;;;;20500837;28;20031;-56
2021/09/18 13:25:15;;;;;;;3.80;2.08;;;20.40;62.30;;;;;;20501761;28;20032;-54
2021/09/18 13:35:15;;;;;;;5.90;2.03;;;20.40;62.20;;;;;;20493074;28;20376;-54
2021/09/18 13:45:16;;;;;;;4.00;2.05;;;20.50;62.30;;;;;;20490001;28;20027;-56
2021/09/18 13:55:16;;;;;;;6.68;2.20;;;20.40;62.20;;;;;;20500780;28;20050;-57
